sensor_id;sensor_type;location;lat;lon;timestamp;P1;durP1;ratioP1;P2;durP2;ratioP2
18013;SDS011;9132;47.946;10.394;2024-02-26T00:00:46;1.33;;;0.90;;
18013;SDS011;9132;47.946;10.394;2024-02-26T00:03:13;1.17;;;0.80;;
18013;SDS011;9132;47.946;10.394;2024-02-26T00:05:39;1.10;;;1.00;;
18013;SDS011;9132;47.946;10.394;2024-02-26T00:08:06;2.23;;;0.90;;
18013;SDS011;9132;47.946;10.394;2024-02-26T00:10:33;1.97;;;0.90;;
18013;SDS011;9132;47.946;10.394;2024-02-26T00:12:59;0.80;;;0.70;;
18013;SDS011;9132;47.946;10.394;2024-02-26T00:15:26;1.40;;;0.80;;
18013;SDS011;9132;47.946;10.394;2024-02-26T00:17:54;0.93;;;0.80;;
18013;SDS011;9132;47.946;10.394;2024-02-26T00:20:20;1.07;;;0.97;;
18013;SDS011;9132;47.946;10.394;2024-02-26T00:22:47;1.50;;;1.10;;
18013;SDS011;9132;47.946;10.394;2024-02-26T00:25:14;1.20;;;1.00;;
18013;SDS011;9132;47.946;10.394;2024-02-26T00:27:40;1.43;;;1.17;;
18013;SDS011;9132;47.946;10.394;2024-02-26T00:30:09;1.90;;;1.30;;
18013;SDS011;9132;47.946;10.394;2024-02-26T00:32:37;1.90;;;1.37;;
18013;SDS011;9132;47.946;10.394;2024-02-26T00:35:05;2.70;;;1.70;;
18013;SDS011;9132;47.946;10.394;2024-02-26T00:37:34;2.73;;;1.30;;
18013;SDS011;9132;47.946;10.394;2024-02-26T00:40:01;1.60;;;1.10;;
18013;SDS011;9132;47.946;10.394;2024-02-26T00:42:29;1.73;;;1.33;;
18013;SDS011;9132;47.946;10.394;2024-02-26T00:44:55;2.13;;;1.33;;
18013;SDS011;9132;47.946;10.394;2024-02-26T00:47:22;1.80;;;1.30;;
18013;SDS011;9132;47.946;10.394;2024-02-26T00:49:48;3.03;;;1.47;;
18013;SDS011;9132;47.946;10.394;2024-02-26T00:52:16;2.23;;;1.37;;
18013;SDS011;9132;47.946;10.394;2024-02-26T00:54:43;1.40;;;1.10;;
18013;SDS011;9132;47.946;10.394;2024-02-26T00:57:09;1.93;;;0.97;;
18013;SDS011;9132;47.946;10.394;2024-02-26T00:59:36;1.80;;;0.90;;
18013;SDS011;9132;47.946;10.394;2024-02-26T01:02:03;1.30;;;1.00;;
18013;SDS011;9132;47.946;10.394;2024-02-26T01:04:31;1.00;;;0.80;;
18013;SDS011;9132;47.946;10.394;2024-02-26T01:06:59;1.20;;;0.90;;
18013;SDS011;9132;47.946;10.394;2024-02-26T01:09:27;1.47;;;1.10;;
18013;SDS011;9132;47.946;10.394;2024-02-26T01:11:53;1.47;;;1.07;;
18013;SDS011;9132;47.946;10.394;2024-02-26T01:14:20;1.20;;;0.93;;
18013;SDS011;9132;47.946;10.394;2024-02-26T01:16:47;1.97;;;1.10;;
18013;SDS011;9132;47.946;10.394;2024-02-26T01:19:13;0.87;;;0.87;;
18013;SDS011;9132;47.946;10.394;2024-02-26T01:21:40;1.80;;;0.90;;
18013;SDS011;9132;47.946;10.394;2024-02-26T01:24:07;1.20;;;1.00;;
18013;SDS011;9132;47.946;10.394;2024-02-26T01:26:35;1.00;;;0.90;;
18013;SDS011;9132;47.946;10.394;2024-02-26T01:29:01;1.30;;;1.20;;
18013;SDS011;9132;47.946;10.394;2024-02-26T01:31:28;1.90;;;1.00;;
18013;SDS011;9132;47.946;10.394;2024-02-26T01:33:54;1.83;;;1.00;;
18013;SDS011;9132;47.946;10.394;2024-02-26T01:36:21;1.00;;;0.90;;
18013;SDS011;9132;47.946;10.394;2024-02-26T01:38:47;1.33;;;1.00;;
18013;SDS011;9132;47.946;10.394;2024-02-26T01:41:14;1.77;;;1.30;;
18013;SDS011;9132;47.946;10.394;2024-02-26T01:43:42;1.13;;;1.00;;
18013;SDS011;9132;47.946;10.394;2024-02-26T01:46:09;2.27;;;1.30;;
18013;SDS011;9132;47.946;10.394;2024-02-26T01:48:38;1.77;;;1.00;;
18013;SDS011;9132;47.946;10.394;2024-02-26T01:51:05;1.57;;;1.10;;
18013;SDS011;9132;47.946;10.394;2024-02-26T01:53:32;2.63;;;1.20;;
18013;SDS011;9132;47.946;10.394;2024-02-26T01:55:59;1.80;;;1.00;;
18013;SDS011;9132;47.946;10.394;2024-02-26T01:58:26;1.30;;;1.00;;
18013;SDS011;9132;47.946;10.394;2024-02-26T02:00:56;1.93;;;1.20;;
18013;SDS011;9132;47.946;10.394;2024-02-26T02:03:23;1.70;;;1.00;;
18013;SDS011;9132;47.946;10.394;2024-02-26T02:05:50;2.07;;;0.80;;
18013;SDS011;9132;47.946;10.394;2024-02-26T02:08:17;1.73;;;1.10;;
18013;SDS011;9132;47.946;10.394;2024-02-26T02:10:44;1.30;;;0.90;;
18013;SDS011;9132;47.946;10.394;2024-02-26T02:13:12;1.03;;;0.90;;
18013;SDS011;9132;47.946;10.394;2024-02-26T02:15:39;1.03;;;1.00;;
18013;SDS011;9132;47.946;10.394;2024-02-26T02:18:07;1.20;;;1.10;;
18013;SDS011;9132;47.946;10.394;2024-02-26T02:20:35;1.10;;;0.80;;
18013;SDS011;9132;47.946;10.394;2024-02-26T02:23:02;1.10;;;0.80;;
18013;SDS011;9132;47.946;10.394;2024-02-26T02:25:29;1.30;;;0.70;;
18013;SDS011;9132;47.946;10.394;2024-02-26T02:27:55;0.40;;;0.40;;
18013;SDS011;9132;47.946;10.394;2024-02-26T02:30:23;0.63;;;0.60;;
18013;SDS011;9132;47.946;10.394;2024-02-26T02:32:52;0.50;;;0.40;;
18013;SDS011;9132;47.946;10.394;2024-02-26T02:35:20;0.77;;;0.60;;
18013;SDS011;9132;47.946;10.394;2024-02-26T02:37:47;1.37;;;0.70;;
18013;SDS011;9132;47.946;10.394;2024-02-26T02:40:14;0.50;;;0.47;;
18013;SDS011;9132;47.946;10.394;2024-02-26T02:42:41;0.90;;;0.70;;
18013;SDS011;9132;47.946;10.394;2024-02-26T02:45:08;1.50;;;0.83;;
18013;SDS011;9132;47.946;10.394;2024-02-26T02:47:35;0.97;;;0.87;;
18013;SDS011;9132;47.946;10.394;2024-02-26T02:50:02;1.20;;;1.03;;
18013;SDS011;9132;47.946;10.394;2024-02-26T02:52:30;2.73;;;1.03;;
18013;SDS011;9132;47.946;10.394;2024-02-26T02:54:58;1.00;;;0.83;;
18013;SDS011;9132;47.946;10.394;2024-02-26T02:57:24;1.20;;;0.90;;
18013;SDS011;9132;47.946;10.394;2024-02-26T02:59:51;0.70;;;0.70;;
18013;SDS011;9132;47.946;10.394;2024-02-26T03:02:18;1.20;;;0.93;;
18013;SDS011;9132;47.946;10.394;2024-02-26T03:04:44;0.83;;;0.60;;
18013;SDS011;9132;47.946;10.394;2024-02-26T03:07:11;0.80;;;0.63;;
18013;SDS011;9132;47.946;10.394;2024-02-26T03:09:37;1.23;;;0.70;;
18013;SDS011;9132;47.946;10.394;2024-02-26T03:12:05;0.80;;;0.80;;
18013;SDS011;9132;47.946;10.394;2024-02-26T03:14:32;1.43;;;0.90;;
18013;SDS011;9132;47.946;10.394;2024-02-26T03:16:59;1.10;;;0.80;;
18013;SDS011;9132;47.946;10.394;2024-02-26T03:19:25;1.47;;;0.80;;
18013;SDS011;9132;47.946;10.394;2024-02-26T03:21:52;0.80;;;0.70;;
18013;SDS011;9132;47.946;10.394;2024-02-26T03:24:18;0.80;;;0.80;;
18013;SDS011;9132;47.946;10.394;2024-02-26T03:26:45;2.17;;;0.80;;
18013;SDS011;9132;47.946;10.394;2024-02-26T03:29:13;2.73;;;0.70;;
18013;SDS011;9132;47.946;10.394;2024-02-26T03:31:39;0.80;;;0.80;;
18013;SDS011;9132;47.946;10.394;2024-02-26T03:34:06;1.50;;;0.87;;
18013;SDS011;9132;47.946;10.394;2024-02-26T03:36:33;1.00;;;0.87;;
18013;SDS011;9132;47.946;10.394;2024-02-26T03:38:59;1.00;;;0.70;;
18013;SDS011;9132;47.946;10.394;2024-02-26T03:41:29;1.00;;;0.80;;
18013;SDS011;9132;47.946;10.394;2024-02-26T03:43:57;1.93;;;0.90;;
18013;SDS011;9132;47.946;10.394;2024-02-26T03:46:25;1.03;;;0.80;;
18013;SDS011;9132;47.946;10.394;2024-02-26T03:48:51;0.67;;;0.67;;
18013;SDS011;9132;47.946;10.394;2024-02-26T03:51:18;1.30;;;0.77;;
18013;SDS011;9132;47.946;10.394;2024-02-26T03:53:45;1.27;;;0.90;;
18013;SDS011;9132;47.946;10.394;2024-02-26T03:56:11;1.27;;;0.90;;
18013;SDS011;9132;47.946;10.394;2024-02-26T03:58:38;1.90;;;0.90;;
18013;SDS011;9132;47.946;10.394;2024-02-26T04:01:07;3.70;;;1.30;;
18013;SDS011;9132;47.946;10.394;2024-02-26T04:03:35;2.10;;;1.00;;
18013;SDS011;9132;47.946;10.394;2024-02-26T04:06:01;1.13;;;0.90;;
18013;SDS011;9132;47.946;10.394;2024-02-26T04:08:28;1.53;;;0.97;;
18013;SDS011;9132;47.946;10.394;2024-02-26T04:10:55;1.70;;;1.00;;
18013;SDS011;9132;47.946;10.394;2024-02-26T04:13:21;1.47;;;1.00;;
18013;SDS011;9132;47.946;10.394;2024-02-26T04:15:48;1.30;;;1.17;;
18013;SDS011;9132;47.946;10.394;2024-02-26T04:18:15;2.07;;;1.53;;
18013;SDS011;9132;47.946;10.394;2024-02-26T04:20:43;1.53;;;1.30;;
18013;SDS011;9132;47.946;10.394;2024-02-26T04:23:09;1.47;;;1.33;;
18013;SDS011;9132;47.946;10.394;2024-02-26T04:25:36;1.90;;;1.30;;
18013;SDS011;9132;47.946;10.394;2024-02-26T04:28:03;1.70;;;1.30;;
18013;SDS011;9132;47.946;10.394;2024-02-26T04:30:29;1.80;;;1.10;;
18013;SDS011;9132;47.946;10.394;2024-02-26T04:32:56;1.37;;;1.20;;
18013;SDS011;9132;47.946;10.394;2024-02-26T04:35:23;2.03;;;1.30;;
18013;SDS011;9132;47.946;10.394;2024-02-26T04:37:50;1.40;;;1.30;;
18013;SDS011;9132;47.946;10.394;2024-02-26T04:40:17;1.87;;;1.60;;
18013;SDS011;9132;47.946;10.394;2024-02-26T04:42:44;3.30;;;1.70;;
18013;SDS011;9132;47.946;10.394;2024-02-26T04:45:10;2.23;;;1.70;;
18013;SDS011;9132;47.946;10.394;2024-02-26T04:47:37;4.00;;;1.83;;
18013;SDS011;9132;47.946;10.394;2024-02-26T04:50:04;3.73;;;2.43;;
18013;SDS011;9132;47.946;10.394;2024-02-26T04:52:31;1.83;;;1.53;;
18013;SDS011;9132;47.946;10.394;2024-02-26T04:54:59;1.20;;;1.10;;
18013;SDS011;9132;47.946;10.394;2024-02-26T04:57:26;1.40;;;0.90;;
18013;SDS011;9132;47.946;10.394;2024-02-26T04:59:53;1.77;;;1.07;;
18013;SDS011;9132;47.946;10.394;2024-02-26T05:02:19;3.13;;;1.33;;
18013;SDS011;9132;47.946;10.394;2024-02-26T05:04:46;2.30;;;1.00;;
18013;SDS011;9132;47.946;10.394;2024-02-26T05:07:12;1.40;;;1.30;;
18013;SDS011;9132;47.946;10.394;2024-02-26T05:09:39;1.53;;;0.90;;
18013;SDS011;9132;47.946;10.394;2024-02-26T05:12:08;1.70;;;1.60;;
18013;SDS011;9132;47.946;10.394;2024-02-26T05:14:34;1.30;;;1.20;;
18013;SDS011;9132;47.946;10.394;2024-02-26T05:17:01;1.40;;;1.27;;
18013;SDS011;9132;47.946;10.394;2024-02-26T05:19:28;3.43;;;1.10;;
18013;SDS011;9132;47.946;10.394;2024-02-26T05:21:54;2.00;;;0.90;;
18013;SDS011;9132;47.946;10.394;2024-02-26T05:24:22;1.13;;;0.90;;
18013;SDS011;9132;47.946;10.394;2024-02-26T05:26:48;2.80;;;1.10;;
18013;SDS011;9132;47.946;10.394;2024-02-26T05:29:16;1.83;;;1.00;;
18013;SDS011;9132;47.946;10.394;2024-02-26T05:31:43;2.10;;;1.90;;
18013;SDS011;9132;47.946;10.394;2024-02-26T05:34:09;1.60;;;1.30;;
18013;SDS011;9132;47.946;10.394;2024-02-26T05:36:36;1.37;;;1.27;;
18013;SDS011;9132;47.946;10.394;2024-02-26T05:39:02;1.73;;;1.40;;
18013;SDS011;9132;47.946;10.394;2024-02-26T05:41:29;1.77;;;0.90;;
18013;SDS011;9132;47.946;10.394;2024-02-26T05:43:56;1.33;;;0.93;;
18013;SDS011;9132;47.946;10.394;2024-02-26T05:46:24;1.00;;;0.90;;
18013;SDS011;9132;47.946;10.394;2024-02-26T05:48:52;1.27;;;0.97;;
18013;SDS011;9132;47.946;10.394;2024-02-26T05:51:19;1.00;;;0.80;;
18013;SDS011;9132;47.946;10.394;2024-02-26T05:53:45;0.73;;;0.67;;
18013;SDS011;9132;47.946;10.394;2024-02-26T05:56:18;1.60;;;0.93;;
18013;SDS011;9132;47.946;10.394;2024-02-26T05:58:45;3.97;;;3.57;;
18013;SDS011;9132;47.946;10.394;2024-02-26T06:01:12;1.70;;;1.60;;
18013;SDS011;9132;47.946;10.394;2024-02-26T06:03:39;1.50;;;1.00;;
18013;SDS011;9132;47.946;10.394;2024-02-26T06:06:06;2.00;;;1.40;;
18013;SDS011;9132;47.946;10.394;2024-02-26T06:08:32;1.50;;;0.90;;
18013;SDS011;9132;47.946;10.394;2024-02-26T06:10:59;1.10;;;0.90;;
18013;SDS011;9132;47.946;10.394;2024-02-26T06:13:25;0.90;;;0.90;;
18013;SDS011;9132;47.946;10.394;2024-02-26T06:15:52;1.17;;;1.07;;
18013;SDS011;9132;47.946;10.394;2024-02-26T06:18:18;1.27;;;0.97;;
18013;SDS011;9132;47.946;10.394;2024-02-26T06:20:46;2.27;;;1.63;;
18013;SDS011;9132;47.946;10.394;2024-02-26T06:23:13;1.73;;;1.63;;
18013;SDS011;9132;47.946;10.394;2024-02-26T06:25:39;1.73;;;1.20;;
18013;SDS011;9132;47.946;10.394;2024-02-26T06:28:07;2.23;;;1.70;;
18013;SDS011;9132;47.946;10.394;2024-02-26T06:30:34;2.77;;;1.70;;
18013;SDS011;9132;47.946;10.394;2024-02-26T06:33:01;4.50;;;1.73;;
18013;SDS011;9132;47.946;10.394;2024-02-26T06:35:28;1.50;;;1.30;;
18013;SDS011;9132;47.946;10.394;2024-02-26T06:37:55;1.87;;;1.40;;
18013;SDS011;9132;47.946;10.394;2024-02-26T06:40:22;1.57;;;1.10;;
18013;SDS011;9132;47.946;10.394;2024-02-26T06:42:48;2.27;;;1.20;;
18013;SDS011;9132;47.946;10.394;2024-02-26T06:45:16;1.50;;;1.00;;
18013;SDS011;9132;47.946;10.394;2024-02-26T06:47:43;1.77;;;0.80;;
18013;SDS011;9132;47.946;10.394;2024-02-26T06:50:11;0.83;;;0.73;;
18013;SDS011;9132;47.946;10.394;2024-02-26T06:52:38;2.63;;;1.30;;
18013;SDS011;9132;47.946;10.394;2024-02-26T06:55:06;1.10;;;1.00;;
18013;SDS011;9132;47.946;10.394;2024-02-26T06:57:33;11.47;;;7.27;;
18013;SDS011;9132;47.946;10.394;2024-02-26T07:00:00;42.57;;;18.57;;
18013;SDS011;9132;47.946;10.394;2024-02-26T07:02:28;40.87;;;20.87;;
18013;SDS011;9132;47.946;10.394;2024-02-26T07:04:55;17.33;;;10.30;;
18013;SDS011;9132;47.946;10.394;2024-02-26T07:07:23;6.10;;;3.20;;
18013;SDS011;9132;47.946;10.394;2024-02-26T07:09:49;4.93;;;2.17;;
18013;SDS011;9132;47.946;10.394;2024-02-26T07:12:18;1.67;;;1.07;;
18013;SDS011;9132;47.946;10.394;2024-02-26T07:14:47;1.80;;;1.00;;
18013;SDS011;9132;47.946;10.394;2024-02-26T07:17:13;1.17;;;0.80;;
18013;SDS011;9132;47.946;10.394;2024-02-26T07:19:41;1.00;;;0.80;;
18013;SDS011;9132;47.946;10.394;2024-02-26T07:22:07;1.80;;;0.90;;
18013;SDS011;9132;47.946;10.394;2024-02-26T07:24:34;1.77;;;1.67;;
18013;SDS011;9132;47.946;10.394;2024-02-26T07:27:01;2.97;;;1.63;;
18013;SDS011;9132;47.946;10.394;2024-02-26T07:29:29;1.60;;;0.80;;
18013;SDS011;9132;47.946;10.394;2024-02-26T07:31:55;3.93;;;1.80;;
18013;SDS011;9132;47.946;10.394;2024-02-26T07:34:22;1.73;;;1.47;;
18013;SDS011;9132;47.946;10.394;2024-02-26T07:36:52;1.83;;;1.00;;
18013;SDS011;9132;47.946;10.394;2024-02-26T07:39:19;1.10;;;0.90;;
18013;SDS011;9132;47.946;10.394;2024-02-26T07:41:45;1.50;;;1.13;;
18013;SDS011;9132;47.946;10.394;2024-02-26T07:44:14;2.23;;;1.00;;
18013;SDS011;9132;47.946;10.394;2024-02-26T07:46:42;1.43;;;0.90;;
18013;SDS011;9132;47.946;10.394;2024-02-26T07:49:09;2.87;;;1.17;;
18013;SDS011;9132;47.946;10.394;2024-02-26T07:51:35;1.43;;;1.10;;
18013;SDS011;9132;47.946;10.394;2024-02-26T07:54:02;1.90;;;1.17;;
18013;SDS011;9132;47.946;10.394;2024-02-26T07:56:29;1.73;;;1.63;;
18013;SDS011;9132;47.946;10.394;2024-02-26T07:58:55;2.03;;;1.73;;
18013;SDS011;9132;47.946;10.394;2024-02-26T08:01:22;1.37;;;1.27;;
18013;SDS011;9132;47.946;10.394;2024-02-26T08:03:52;1.40;;;1.30;;
18013;SDS011;9132;47.946;10.394;2024-02-26T08:06:18;15.07;;;13.73;;
18013;SDS011;9132;47.946;10.394;2024-02-26T08:08:45;14.27;;;12.97;;
18013;SDS011;9132;47.946;10.394;2024-02-26T08:11:13;9.43;;;8.00;;
18013;SDS011;9132;47.946;10.394;2024-02-26T08:13:40;8.47;;;7.47;;
18013;SDS011;9132;47.946;10.394;2024-02-26T08:16:07;2.20;;;1.80;;
18013;SDS011;9132;47.946;10.394;2024-02-26T08:18:34;1.90;;;1.30;;
18013;SDS011;9132;47.946;10.394;2024-02-26T08:21:02;3.30;;;1.40;;
18013;SDS011;9132;47.946;10.394;2024-02-26T08:23:28;3.97;;;2.07;;
18013;SDS011;9132;47.946;10.394;2024-02-26T08:25:56;4.47;;;2.00;;
18013;SDS011;9132;47.946;10.394;2024-02-26T08:28:22;6.73;;;2.93;;
18013;SDS011;9132;47.946;10.394;2024-02-26T08:30:49;4.03;;;2.17;;
18013;SDS011;9132;47.946;10.394;2024-02-26T08:33:16;3.83;;;2.10;;
18013;SDS011;9132;47.946;10.394;2024-02-26T08:35:43;4.07;;;2.97;;
18013;SDS011;9132;47.946;10.394;2024-02-26T08:38:10;2.73;;;2.37;;
18013;SDS011;9132;47.946;10.394;2024-02-26T08:40:37;2.23;;;1.90;;
18013;SDS011;9132;47.946;10.394;2024-02-26T08:43:04;2.83;;;1.87;;
18013;SDS011;9132;47.946;10.394;2024-02-26T08:45:30;2.17;;;1.40;;
18013;SDS011;9132;47.946;10.394;2024-02-26T08:47:56;2.40;;;1.37;;
18013;SDS011;9132;47.946;10.394;2024-02-26T08:50:24;2.17;;;1.43;;
18013;SDS011;9132;47.946;10.394;2024-02-26T08:52:50;1.87;;;1.60;;
18013;SDS011;9132;47.946;10.394;2024-02-26T08:55:19;4.77;;;1.70;;
18013;SDS011;9132;47.946;10.394;2024-02-26T08:57:46;3.77;;;2.60;;
18013;SDS011;9132;47.946;10.394;2024-02-26T09:00:13;6.07;;;1.90;;
18013;SDS011;9132;47.946;10.394;2024-02-26T09:02:42;2.77;;;1.57;;
18013;SDS011;9132;47.946;10.394;2024-02-26T09:05:09;2.37;;;1.90;;
18013;SDS011;9132;47.946;10.394;2024-02-26T09:07:36;6.30;;;3.37;;
18013;SDS011;9132;47.946;10.394;2024-02-26T09:10:03;5.20;;;3.17;;
18013;SDS011;9132;47.946;10.394;2024-02-26T09:12:31;2.80;;;2.33;;
18013;SDS011;9132;47.946;10.394;2024-02-26T09:14:58;2.90;;;1.87;;
18013;SDS011;9132;47.946;10.394;2024-02-26T09:17:23;2.80;;;1.90;;
18013;SDS011;9132;47.946;10.394;2024-02-26T09:19:50;1.83;;;1.63;;
18013;SDS011;9132;47.946;10.394;2024-02-26T09:22:16;3.30;;;1.70;;
18013;SDS011;9132;47.946;10.394;2024-02-26T09:24:42;2.10;;;1.60;;
18013;SDS011;9132;47.946;10.394;2024-02-26T09:27:09;2.73;;;1.13;;
18013;SDS011;9132;47.946;10.394;2024-02-26T09:29:37;1.90;;;1.47;;
18013;SDS011;9132;47.946;10.394;2024-02-26T09:32:03;1.90;;;1.60;;
18013;SDS011;9132;47.946;10.394;2024-02-26T09:34:30;2.63;;;1.37;;
18013;SDS011;9132;47.946;10.394;2024-02-26T09:36:56;2.13;;;1.40;;
18013;SDS011;9132;47.946;10.394;2024-02-26T09:39:23;2.47;;;1.33;;
18013;SDS011;9132;47.946;10.394;2024-02-26T09:41:49;2.67;;;1.27;;
18013;SDS011;9132;47.946;10.394;2024-02-26T09:44:18;1.70;;;1.40;;
18013;SDS011;9132;47.946;10.394;2024-02-26T09:46:48;1.90;;;1.53;;
18013;SDS011;9132;47.946;10.394;2024-02-26T09:49:15;2.43;;;1.80;;
18013;SDS011;9132;47.946;10.394;2024-02-26T09:51:42;1.90;;;1.40;;
18013;SDS011;9132;47.946;10.394;2024-02-26T09:54:09;2.23;;;1.70;;
18013;SDS011;9132;47.946;10.394;2024-02-26T09:56:36;2.95;;;1.70;;
18013;SDS011;9132;47.946;10.394;2024-02-26T09:59:05;2.17;;;1.80;;
18013;SDS011;9132;47.946;10.394;2024-02-26T10:01:36;5.13;;;3.40;;
18013;SDS011;9132;47.946;10.394;2024-02-26T10:04:06;3.00;;;1.73;;
18013;SDS011;9132;47.946;10.394;2024-02-26T10:06:36;2.47;;;1.40;;
18013;SDS011;9132;47.946;10.394;2024-02-26T10:09:03;2.10;;;1.30;;
18013;SDS011;9132;47.946;10.394;2024-02-26T10:11:32;1.33;;;1.10;;
18013;SDS011;9132;47.946;10.394;2024-02-26T10:13:59;1.73;;;1.20;;
18013;SDS011;9132;47.946;10.394;2024-02-26T10:16:24;1.13;;;1.00;;
18013;SDS011;9132;47.946;10.394;2024-02-26T10:18:52;1.70;;;1.17;;
18013;SDS011;9132;47.946;10.394;2024-02-26T10:21:21;1.40;;;1.30;;
18013;SDS011;9132;47.946;10.394;2024-02-26T10:23:48;2.37;;;1.30;;
18013;SDS011;9132;47.946;10.394;2024-02-26T10:26:15;3.20;;;1.93;;
18013;SDS011;9132;47.946;10.394;2024-02-26T10:28:43;4.50;;;2.67;;
18013;SDS011;9132;47.946;10.394;2024-02-26T10:31:10;4.83;;;1.50;;
18013;SDS011;9132;47.946;10.394;2024-02-26T10:33:38;3.13;;;1.63;;
18013;SDS011;9132;47.946;10.394;2024-02-26T10:36:05;2.33;;;1.57;;
18013;SDS011;9132;47.946;10.394;2024-02-26T10:38:35;3.00;;;1.40;;
18013;SDS011;9132;47.946;10.394;2024-02-26T10:41:02;2.47;;;1.80;;
18013;SDS011;9132;47.946;10.394;2024-02-26T10:43:29;2.07;;;1.40;;
18013;SDS011;9132;47.946;10.394;2024-02-26T10:45:55;2.70;;;1.83;;
18013;SDS011;9132;47.946;10.394;2024-02-26T10:48:22;2.30;;;1.60;;
18013;SDS011;9132;47.946;10.394;2024-02-26T10:50:49;2.37;;;1.40;;
18013;SDS011;9132;47.946;10.394;2024-02-26T10:53:16;2.10;;;1.47;;
18013;SDS011;9132;47.946;10.394;2024-02-26T10:55:48;3.57;;;1.47;;
18013;SDS011;9132;47.946;10.394;2024-02-26T10:58:16;2.83;;;1.53;;
18013;SDS011;9132;47.946;10.394;2024-02-26T11:00:43;1.73;;;1.57;;
18013;SDS011;9132;47.946;10.394;2024-02-26T11:03:10;2.47;;;1.83;;
18013;SDS011;9132;47.946;10.394;2024-02-26T11:05:38;3.80;;;2.37;;
18013;SDS011;9132;47.946;10.394;2024-02-26T11:08:06;2.43;;;2.13;;
18013;SDS011;9132;47.946;10.394;2024-02-26T11:10:33;1.60;;;1.50;;
18013;SDS011;9132;47.946;10.394;2024-02-26T11:13:01;3.00;;;2.10;;
18013;SDS011;9132;47.946;10.394;2024-02-26T11:15:30;3.60;;;2.80;;
18013;SDS011;9132;47.946;10.394;2024-02-26T11:17:58;3.63;;;2.10;;
18013;SDS011;9132;47.946;10.394;2024-02-26T11:20:27;3.87;;;1.97;;
18013;SDS011;9132;47.946;10.394;2024-02-26T11:22:54;5.73;;;2.13;;
18013;SDS011;9132;47.946;10.394;2024-02-26T11:25:21;3.60;;;1.70;;
18013;SDS011;9132;47.946;10.394;2024-02-26T11:27:50;3.97;;;2.10;;
18013;SDS011;9132;47.946;10.394;2024-02-26T11:30:20;3.17;;;1.90;;
18013;SDS011;9132;47.946;10.394;2024-02-26T11:32:48;5.87;;;2.00;;
18013;SDS011;9132;47.946;10.394;2024-02-26T11:35:15;2.20;;;2.00;;
18013;SDS011;9132;47.946;10.394;2024-02-26T11:37:50;2.30;;;1.67;;
18013;SDS011;9132;47.946;10.394;2024-02-26T11:40:18;2.13;;;1.40;;
18013;SDS011;9132;47.946;10.394;2024-02-26T11:42:45;2.83;;;1.80;;
18013;SDS011;9132;47.946;10.394;2024-02-26T11:48:19;2.73;;;2.10;;
18013;SDS011;9132;47.946;10.394;2024-02-26T11:50:47;3.10;;;2.23;;
18013;SDS011;9132;47.946;10.394;2024-02-26T11:53:21;2.70;;;2.00;;
18013;SDS011;9132;47.946;10.394;2024-02-26T11:58:39;4.50;;;2.07;;
18013;SDS011;9132;47.946;10.394;2024-02-26T12:04:05;2.23;;;2.03;;
18013;SDS011;9132;47.946;10.394;2024-02-26T12:06:39;4.83;;;1.97;;
18013;SDS011;9132;47.946;10.394;2024-02-26T12:09:07;2.43;;;2.07;;
18013;SDS011;9132;47.946;10.394;2024-02-26T12:11:36;2.93;;;2.23;;
18013;SDS011;9132;47.946;10.394;2024-02-26T12:14:05;2.90;;;2.60;;
18013;SDS011;9132;47.946;10.394;2024-02-26T12:16:36;3.03;;;2.30;;
18013;SDS011;9132;47.946;10.394;2024-02-26T12:19:08;4.20;;;2.67;;
18013;SDS011;9132;47.946;10.394;2024-02-26T12:21:35;4.20;;;2.13;;
18013;SDS011;9132;47.946;10.394;2024-02-26T12:24:10;2.47;;;1.87;;
18013;SDS011;9132;47.946;10.394;2024-02-26T12:26:37;3.07;;;2.07;;
18013;SDS011;9132;47.946;10.394;2024-02-26T12:29:04;2.77;;;2.03;;
18013;SDS011;9132;47.946;10.394;2024-02-26T12:31:31;3.00;;;2.70;;
18013;SDS011;9132;47.946;10.394;2024-02-26T12:33:59;4.43;;;2.00;;
18013;SDS011;9132;47.946;10.394;2024-02-26T12:36:26;2.53;;;2.10;;
18013;SDS011;9132;47.946;10.394;2024-02-26T12:38:53;3.00;;;2.33;;
18013;SDS011;9132;47.946;10.394;2024-02-26T12:41:20;5.63;;;1.93;;
18013;SDS011;9132;47.946;10.394;2024-02-26T12:43:47;3.17;;;2.20;;
18013;SDS011;9132;47.946;10.394;2024-02-26T12:46:14;2.00;;;1.80;;
18013;SDS011;9132;47.946;10.394;2024-02-26T12:48:41;2.77;;;1.90;;
18013;SDS011;9132;47.946;10.394;2024-02-26T12:51:10;1.67;;;1.50;;
18013;SDS011;9132;47.946;10.394;2024-02-26T12:53:38;1.50;;;1.40;;
18013;SDS011;9132;47.946;10.394;2024-02-26T12:56:05;2.97;;;1.80;;
18013;SDS011;9132;47.946;10.394;2024-02-26T12:58:33;1.73;;;1.40;;
18013;SDS011;9132;47.946;10.394;2024-02-26T13:01:03;2.83;;;1.90;;
18013;SDS011;9132;47.946;10.394;2024-02-26T13:03:29;2.20;;;1.70;;
18013;SDS011;9132;47.946;10.394;2024-02-26T13:05:57;2.03;;;1.80;;
18013;SDS011;9132;47.946;10.394;2024-02-26T13:08:25;2.40;;;1.80;;
18013;SDS011;9132;47.946;10.394;2024-02-26T13:10:52;1.97;;;1.60;;
18013;SDS011;9132;47.946;10.394;2024-02-26T13:13:18;2.40;;;1.83;;
18013;SDS011;9132;47.946;10.394;2024-02-26T13:15:45;2.00;;;1.80;;
18013;SDS011;9132;47.946;10.394;2024-02-26T13:18:13;2.10;;;1.80;;
18013;SDS011;9132;47.946;10.394;2024-02-26T13:20:41;2.43;;;1.90;;
18013;SDS011;9132;47.946;10.394;2024-02-26T13:23:08;3.03;;;1.93;;
18013;SDS011;9132;47.946;10.394;2024-02-26T13:25:38;2.57;;;1.83;;
18013;SDS011;9132;47.946;10.394;2024-02-26T13:28:09;3.33;;;2.60;;
18013;SDS011;9132;47.946;10.394;2024-02-26T13:30:41;15.23;;;9.87;;
18013;SDS011;9132;47.946;10.394;2024-02-26T13:33:07;7.77;;;4.43;;
18013;SDS011;9132;47.946;10.394;2024-02-26T13:35:35;2.50;;;2.30;;
18013;SDS011;9132;47.946;10.394;2024-02-26T13:38:02;3.10;;;1.90;;
18013;SDS011;9132;47.946;10.394;2024-02-26T13:40:29;2.93;;;1.80;;
18013;SDS011;9132;47.946;10.394;2024-02-26T13:42:56;3.10;;;1.80;;
18013;SDS011;9132;47.946;10.394;2024-02-26T13:45:23;2.70;;;1.97;;
18013;SDS011;9132;47.946;10.394;2024-02-26T13:47:50;2.90;;;1.93;;
18013;SDS011;9132;47.946;10.394;2024-02-26T13:50:16;2.63;;;2.43;;
18013;SDS011;9132;47.946;10.394;2024-02-26T13:52:46;2.97;;;2.53;;
18013;SDS011;9132;47.946;10.394;2024-02-26T13:55:18;3.87;;;2.60;;
18013;SDS011;9132;47.946;10.394;2024-02-26T13:57:44;3.17;;;2.20;;
18013;SDS011;9132;47.946;10.394;2024-02-26T14:00:13;2.57;;;1.90;;
18013;SDS011;9132;47.946;10.394;2024-02-26T14:02:40;2.20;;;2.00;;
18013;SDS011;9132;47.946;10.394;2024-02-26T14:05:07;2.10;;;1.90;;
18013;SDS011;9132;47.946;10.394;2024-02-26T14:07:33;3.20;;;2.13;;
18013;SDS011;9132;47.946;10.394;2024-02-26T14:10:00;4.80;;;1.80;;
18013;SDS011;9132;47.946;10.394;2024-02-26T14:12:27;2.30;;;1.97;;
18013;SDS011;9132;47.946;10.394;2024-02-26T14:14:53;2.20;;;1.93;;
18013;SDS011;9132;47.946;10.394;2024-02-26T14:17:22;3.27;;;1.80;;
18013;SDS011;9132;47.946;10.394;2024-02-26T14:19:48;2.93;;;1.90;;
18013;SDS011;9132;47.946;10.394;2024-02-26T14:22:15;3.20;;;1.87;;
18013;SDS011;9132;47.946;10.394;2024-02-26T14:24:41;3.03;;;2.30;;
18013;SDS011;9132;47.946;10.394;2024-02-26T14:27:08;2.60;;;2.00;;
18013;SDS011;9132;47.946;10.394;2024-02-26T14:29:37;7.37;;;4.33;;
18013;SDS011;9132;47.946;10.394;2024-02-26T14:32:05;12.20;;;6.57;;
18013;SDS011;9132;47.946;10.394;2024-02-26T14:34:33;11.00;;;6.67;;
18013;SDS011;9132;47.946;10.394;2024-02-26T14:36:59;6.82;;;4.93;;
18013;SDS011;9132;47.946;10.394;2024-02-26T14:39:26;3.20;;;2.43;;
18013;SDS011;9132;47.946;10.394;2024-02-26T14:41:52;2.93;;;2.47;;
18013;SDS011;9132;47.946;10.394;2024-02-26T14:44:19;3.50;;;2.47;;
18013;SDS011;9132;47.946;10.394;2024-02-26T14:46:45;2.77;;;2.10;;
18013;SDS011;9132;47.946;10.394;2024-02-26T14:49:12;1.93;;;1.83;;
18013;SDS011;9132;47.946;10.394;2024-02-26T14:51:39;3.00;;;1.93;;
18013;SDS011;9132;47.946;10.394;2024-02-26T14:54:06;3.10;;;2.00;;
18013;SDS011;9132;47.946;10.394;2024-02-26T14:56:33;3.10;;;1.73;;